sensor_id;sensor_type;location;lat;lon;timestamp;P1;durP1;ratioP1;P2;durP2;ratioP2
70832;SDS011;58452;59.418;17.962;2022-07-23T00:01:28;35.15;;;11.32;;
70832;SDS011;58452;59.418;17.962;2022-07-23T00:03:55;29.63;;;11.48;;
70832;SDS011;58452;59.418;17.962;2022-07-23T00:06:20;54.33;;;12.80;;
70832;SDS011;58452;59.418;17.962;2022-07-23T00:08:46;44.97;;;11.70;;
70832;SDS011;58452;59.418;17.962;2022-07-23T00:11:12;34.15;;;11.50;;
70832;SDS011;58452;59.418;17.962;2022-07-23T00:13:37;36.05;;;12.13;;
70832;SDS011;58452;59.418;17.962;2022-07-23T00:16:03;40.47;;;12.45;;
70832;SDS011;58452;59.418;17.962;2022-07-23T00:18:29;41.50;;;13.13;;
70832;SDS011;58452;59.418;17.962;2022-07-23T00:20:54;42.70;;;14.15;;
70832;SDS011;58452;59.418;17.962;2022-07-23T00:23:19;47.75;;;13.80;;
70832;SDS011;58452;59.418;17.962;2022-07-23T00:25:45;44.70;;;13.95;;
70832;SDS011;58452;59.418;17.962;2022-07-23T00:28:10;43.38;;;13.43;;
70832;SDS011;58452;59.418;17.962;2022-07-23T00:30:36;32.47;;;13.15;;
70832;SDS011;58452;59.418;17.962;2022-07-23T00:33:04;39.95;;;13.48;;
70832;SDS011;58452;59.418;17.962;2022-07-23T00:35:38;40.47;;;13.10;;
70832;SDS011;58452;59.418;17.962;2022-07-23T00:38:06;34.08;;;13.30;;
70832;SDS011;58452;59.418;17.962;2022-07-23T00:40:32;33.05;;;10.75;;
70832;SDS011;58452;59.418;17.962;2022-07-23T00:42:58;30.23;;;10.02;;
70832;SDS011;58452;59.418;17.962;2022-07-23T00:45:24;41.30;;;13.40;;
70832;SDS011;58452;59.418;17.962;2022-07-23T00:47:50;32.45;;;11.35;;
70832;SDS011;58452;59.418;17.962;2022-07-23T00:50:16;30.00;;;11.77;;
70832;SDS011;58452;59.418;17.962;2022-07-23T00:52:42;33.17;;;12.77;;
70832;SDS011;58452;59.418;17.962;2022-07-23T00:55:08;35.88;;;11.00;;
70832;SDS011;58452;59.418;17.962;2022-07-23T00:57:35;35.97;;;10.70;;
70832;SDS011;58452;59.418;17.962;2022-07-23T01:00:02;30.52;;;11.13;;
70832;SDS011;58452;59.418;17.962;2022-07-23T01:02:29;37.85;;;10.93;;
70832;SDS011;58452;59.418;17.962;2022-07-23T01:04:54;27.23;;;9.55;;
70832;SDS011;58452;59.418;17.962;2022-07-23T01:07:20;25.67;;;9.02;;
70832;SDS011;58452;59.418;17.962;2022-07-23T01:09:46;30.55;;;10.57;;
70832;SDS011;58452;59.418;17.962;2022-07-23T01:12:12;31.70;;;10.38;;
70832;SDS011;58452;59.418;17.962;2022-07-23T01:14:37;28.63;;;9.45;;
70832;SDS011;58452;59.418;17.962;2022-07-23T01:17:03;25.42;;;9.32;;
70832;SDS011;58452;59.418;17.962;2022-07-23T01:19:29;29.98;;;10.35;;
70832;SDS011;58452;59.418;17.962;2022-07-23T01:21:54;28.13;;;9.40;;
70832;SDS011;58452;59.418;17.962;2022-07-23T01:24:22;33.17;;;11.02;;
70832;SDS011;58452;59.418;17.962;2022-07-23T01:26:48;26.33;;;9.27;;
70832;SDS011;58452;59.418;17.962;2022-07-23T01:29:15;28.02;;;7.82;;
70832;SDS011;58452;59.418;17.962;2022-07-23T01:31:41;28.20;;;8.25;;
70832;SDS011;58452;59.418;17.962;2022-07-23T01:34:08;25.30;;;8.85;;
70832;SDS011;58452;59.418;17.962;2022-07-23T01:36:34;21.05;;;8.20;;
70832;SDS011;58452;59.418;17.962;2022-07-23T01:39:00;27.05;;;9.32;;
70832;SDS011;58452;59.418;17.962;2022-07-23T01:41:27;25.35;;;8.27;;
70832;SDS011;58452;59.418;17.962;2022-07-23T01:43:52;20.40;;;6.93;;
70832;SDS011;58452;59.418;17.962;2022-07-23T01:46:18;16.85;;;7.70;;
70832;SDS011;58452;59.418;17.962;2022-07-23T01:48:43;19.95;;;6.75;;
70832;SDS011;58452;59.418;17.962;2022-07-23T01:51:08;17.17;;;6.30;;
70832;SDS011;58452;59.418;17.962;2022-07-23T01:53:34;20.13;;;6.85;;
70832;SDS011;58452;59.418;17.962;2022-07-23T01:55:59;16.52;;;6.82;;
70832;SDS011;58452;59.418;17.962;2022-07-23T01:58:26;12.30;;;4.68;;
70832;SDS011;58452;59.418;17.962;2022-07-23T02:00:52;13.23;;;4.72;;
70832;SDS011;58452;59.418;17.962;2022-07-23T02:03:18;17.40;;;5.38;;
70832;SDS011;58452;59.418;17.962;2022-07-23T02:05:43;14.85;;;4.55;;
70832;SDS011;58452;59.418;17.962;2022-07-23T02:08:08;6.30;;;3.80;;
70832;SDS011;58452;59.418;17.962;2022-07-23T02:10:34;9.23;;;3.53;;
70832;SDS011;58452;59.418;17.962;2022-07-23T02:12:59;6.75;;;2.95;;
70832;SDS011;58452;59.418;17.962;2022-07-23T02:15:24;10.10;;;3.08;;
70832;SDS011;58452;59.418;17.962;2022-07-23T02:17:50;6.95;;;3.15;;
70832;SDS011;58452;59.418;17.962;2022-07-23T02:20:15;8.85;;;2.97;;
70832;SDS011;58452;59.418;17.962;2022-07-23T02:22:41;9.05;;;2.70;;
70832;SDS011;58452;59.418;17.962;2022-07-23T02:25:06;5.60;;;2.35;;
70832;SDS011;58452;59.418;17.962;2022-07-23T02:27:33;5.60;;;2.25;;
70832;SDS011;58452;59.418;17.962;2022-07-23T02:29:59;3.85;;;1.80;;
70832;SDS011;58452;59.418;17.962;2022-07-23T02:32:25;5.20;;;2.00;;
70832;SDS011;58452;59.418;17.962;2022-07-23T02:34:51;4.13;;;1.33;;
70832;SDS011;58452;59.418;17.962;2022-07-23T02:37:16;1.92;;;1.25;;
70832;SDS011;58452;59.418;17.962;2022-07-23T02:39:42;2.22;;;1.38;;
70832;SDS011;58452;59.418;17.962;2022-07-23T02:42:07;3.63;;;1.45;;
70832;SDS011;58452;59.418;17.962;2022-07-23T02:44:33;2.42;;;1.48;;
70832;SDS011;58452;59.418;17.962;2022-07-23T02:46:58;3.22;;;1.10;;
70832;SDS011;58452;59.418;17.962;2022-07-23T02:49:24;2.70;;;1.13;;
70832;SDS011;58452;59.418;17.962;2022-07-23T02:51:49;3.05;;;1.15;;
70832;SDS011;58452;59.418;17.962;2022-07-23T02:54:15;2.45;;;1.10;;
70832;SDS011;58452;59.418;17.962;2022-07-23T02:56:40;3.40;;;1.17;;
70832;SDS011;58452;59.418;17.962;2022-07-23T02:59:06;1.42;;;0.80;;
70832;SDS011;58452;59.418;17.962;2022-07-23T03:01:32;3.42;;;1.17;;
70832;SDS011;58452;59.418;17.962;2022-07-23T03:03:57;3.08;;;1.00;;
70832;SDS011;58452;59.418;17.962;2022-07-23T03:06:23;2.05;;;0.80;;
70832;SDS011;58452;59.418;17.962;2022-07-23T03:08:48;2.85;;;1.10;;
70832;SDS011;58452;59.418;17.962;2022-07-23T03:11:13;3.88;;;1.23;;
70832;SDS011;58452;59.418;17.962;2022-07-23T03:13:39;3.03;;;1.05;;
70832;SDS011;58452;59.418;17.962;2022-07-23T03:16:05;1.00;;;0.93;;
70832;SDS011;58452;59.418;17.962;2022-07-23T03:18:31;2.88;;;1.10;;
70832;SDS011;58452;59.418;17.962;2022-07-23T03:20:57;3.05;;;1.17;;
70832;SDS011;58452;59.418;17.962;2022-07-23T03:23:22;1.85;;;0.85;;
70832;SDS011;58452;59.418;17.962;2022-07-23T03:25:47;1.10;;;0.88;;
70832;SDS011;58452;59.418;17.962;2022-07-23T03:28:13;2.35;;;1.15;;
70832;SDS011;58452;59.418;17.962;2022-07-23T03:30:40;3.63;;;1.25;;
70832;SDS011;58452;59.418;17.962;2022-07-23T03:33:11;2.72;;;1.10;;
70832;SDS011;58452;59.418;17.962;2022-07-23T03:35:41;2.30;;;1.30;;
70832;SDS011;58452;59.418;17.962;2022-07-23T03:38:07;4.07;;;1.30;;
70832;SDS011;58452;59.418;17.962;2022-07-23T03:40:33;4.00;;;1.30;;
70832;SDS011;58452;59.418;17.962;2022-07-23T03:42:58;4.75;;;1.27;;
70832;SDS011;58452;59.418;17.962;2022-07-23T03:45:24;1.70;;;1.30;;
70832;SDS011;58452;59.418;17.962;2022-07-23T03:47:49;3.08;;;1.10;;
70832;SDS011;58452;59.418;17.962;2022-07-23T03:50:14;5.00;;;1.38;;
70832;SDS011;58452;59.418;17.962;2022-07-23T03:52:40;4.47;;;1.40;;
70832;SDS011;58452;59.418;17.962;2022-07-23T03:55:05;2.47;;;1.20;;
70832;SDS011;58452;59.418;17.962;2022-07-23T03:57:31;4.85;;;1.42;;
70832;SDS011;58452;59.418;17.962;2022-07-23T03:59:57;1.55;;;1.38;;
70832;SDS011;58452;59.418;17.962;2022-07-23T04:02:22;3.33;;;1.60;;
70832;SDS011;58452;59.418;17.962;2022-07-23T04:04:48;3.30;;;1.58;;
70832;SDS011;58452;59.418;17.962;2022-07-23T04:07:14;2.80;;;1.27;;
70832;SDS011;58452;59.418;17.962;2022-07-23T04:09:39;2.00;;;0.98;;
70832;SDS011;58452;59.418;17.962;2022-07-23T04:12:05;1.80;;;1.30;;
70832;SDS011;58452;59.418;17.962;2022-07-23T04:14:32;3.58;;;1.48;;
70832;SDS011;58452;59.418;17.962;2022-07-23T04:16:58;1.77;;;1.40;;
70832;SDS011;58452;59.418;17.962;2022-07-23T04:19:24;1.77;;;1.20;;
70832;SDS011;58452;59.418;17.962;2022-07-23T04:21:49;1.80;;;1.15;;
70832;SDS011;58452;59.418;17.962;2022-07-23T04:24:15;1.95;;;1.08;;
70832;SDS011;58452;59.418;17.962;2022-07-23T04:26:40;2.25;;;1.15;;
70832;SDS011;58452;59.418;17.962;2022-07-23T04:29:06;3.38;;;1.60;;
70832;SDS011;58452;59.418;17.962;2022-07-23T04:31:31;5.70;;;1.50;;
70832;SDS011;58452;59.418;17.962;2022-07-23T04:33:56;2.95;;;1.52;;
70832;SDS011;58452;59.418;17.962;2022-07-23T04:36:22;2.85;;;1.80;;
70832;SDS011;58452;59.418;17.962;2022-07-23T04:38:47;3.50;;;1.38;;
70832;SDS011;58452;59.418;17.962;2022-07-23T04:41:13;4.65;;;1.88;;
70832;SDS011;58452;59.418;17.962;2022-07-23T04:43:38;2.88;;;1.30;;
70832;SDS011;58452;59.418;17.962;2022-07-23T04:46:03;2.88;;;1.48;;
70832;SDS011;58452;59.418;17.962;2022-07-23T04:48:29;4.30;;;1.40;;
70832;SDS011;58452;59.418;17.962;2022-07-23T04:50:54;2.30;;;2.00;;
70832;SDS011;58452;59.418;17.962;2022-07-23T04:53:20;3.78;;;1.80;;
70832;SDS011;58452;59.418;17.962;2022-07-23T04:55:45;5.35;;;2.00;;
70832;SDS011;58452;59.418;17.962;2022-07-23T04:58:11;2.42;;;1.83;;
70832;SDS011;58452;59.418;17.962;2022-07-23T05:00:36;1.90;;;1.70;;
70832;SDS011;58452;59.418;17.962;2022-07-23T05:03:02;3.13;;;1.50;;
70832;SDS011;58452;59.418;17.962;2022-07-23T05:05:27;3.97;;;1.67;;
70832;SDS011;58452;59.418;17.962;2022-07-23T05:07:52;4.07;;;1.90;;
70832;SDS011;58452;59.418;17.962;2022-07-23T05:10:18;6.07;;;1.75;;
70832;SDS011;58452;59.418;17.962;2022-07-23T05:12:43;3.15;;;1.45;;
70832;SDS011;58452;59.418;17.962;2022-07-23T05:15:09;4.07;;;2.00;;
70832;SDS011;58452;59.418;17.962;2022-07-23T05:17:34;1.95;;;1.73;;
70832;SDS011;58452;59.418;17.962;2022-07-23T05:20:00;1.50;;;1.40;;
70832;SDS011;58452;59.418;17.962;2022-07-23T05:22:25;1.23;;;1.10;;
70832;SDS011;58452;59.418;17.962;2022-07-23T05:24:51;4.95;;;1.75;;
70832;SDS011;58452;59.418;17.962;2022-07-23T05:27:16;4.78;;;1.30;;
70832;SDS011;58452;59.418;17.962;2022-07-23T05:29:41;3.15;;;1.27;;
70832;SDS011;58452;59.418;17.962;2022-07-23T05:32:07;2.28;;;1.10;;
70832;SDS011;58452;59.418;17.962;2022-07-23T05:34:32;2.22;;;1.45;;
70832;SDS011;58452;59.418;17.962;2022-07-23T05:36:57;3.00;;;1.55;;
70832;SDS011;58452;59.418;17.962;2022-07-23T05:39:23;2.47;;;1.40;;
70832;SDS011;58452;59.418;17.962;2022-07-23T05:41:48;2.58;;;1.20;;
70832;SDS011;58452;59.418;17.962;2022-07-23T05:44:13;8.30;;;1.80;;
70832;SDS011;58452;59.418;17.962;2022-07-23T05:46:39;3.55;;;1.42;;
70832;SDS011;58452;59.418;17.962;2022-07-23T05:49:04;2.13;;;1.33;;
70832;SDS011;58452;59.418;17.962;2022-07-23T05:51:30;3.08;;;1.40;;
70832;SDS011;58452;59.418;17.962;2022-07-23T05:53:55;2.70;;;1.17;;
70832;SDS011;58452;59.418;17.962;2022-07-23T05:56:20;3.10;;;1.65;;
70832;SDS011;58452;59.418;17.962;2022-07-23T05:58:46;1.58;;;1.15;;
70832;SDS011;58452;59.418;17.962;2022-07-23T06:01:11;2.25;;;1.25;;
70832;SDS011;58452;59.418;17.962;2022-07-23T06:03:37;3.08;;;1.08;;
70832;SDS011;58452;59.418;17.962;2022-07-23T06:06:03;1.42;;;1.10;;
70832;SDS011;58452;59.418;17.962;2022-07-23T06:08:29;2.28;;;1.27;;
70832;SDS011;58452;59.418;17.962;2022-07-23T06:10:55;2.25;;;1.00;;
70832;SDS011;58452;59.418;17.962;2022-07-23T06:13:20;3.08;;;1.48;;
70832;SDS011;58452;59.418;17.962;2022-07-23T06:15:46;1.98;;;1.20;;
70832;SDS011;58452;59.418;17.962;2022-07-23T06:18:11;2.63;;;1.60;;
70832;SDS011;58452;59.418;17.962;2022-07-23T06:20:36;1.25;;;0.98;;
70832;SDS011;58452;59.418;17.962;2022-07-23T06:23:02;1.35;;;0.60;;
70832;SDS011;58452;59.418;17.962;2022-07-23T06:25:27;3.80;;;1.13;;
70832;SDS011;58452;59.418;17.962;2022-07-23T06:27:53;1.08;;;0.77;;
70832;SDS011;58452;59.418;17.962;2022-07-23T06:30:18;1.42;;;0.65;;
70832;SDS011;58452;59.418;17.962;2022-07-23T06:32:44;0.77;;;0.70;;
70832;SDS011;58452;59.418;17.962;2022-07-23T06:35:13;0.90;;;0.80;;
70832;SDS011;58452;59.418;17.962;2022-07-23T06:37:39;0.93;;;0.75;;
70832;SDS011;58452;59.418;17.962;2022-07-23T06:40:04;0.82;;;0.60;;
70832;SDS011;58452;59.418;17.962;2022-07-23T06:42:30;0.70;;;0.65;;
70832;SDS011;58452;59.418;17.962;2022-07-23T06:44:55;0.93;;;0.70;;
70832;SDS011;58452;59.418;17.962;2022-07-23T06:47:21;0.82;;;0.82;;
70832;SDS011;58452;59.418;17.962;2022-07-23T06:49:46;1.30;;;0.50;;
70832;SDS011;58452;59.418;17.962;2022-07-23T06:52:12;0.98;;;0.60;;
70832;SDS011;58452;59.418;17.962;2022-07-23T06:54:37;1.42;;;0.60;;
70832;SDS011;58452;59.418;17.962;2022-07-23T06:57:03;0.70;;;0.60;;
70832;SDS011;58452;59.418;17.962;2022-07-23T06:59:28;1.40;;;0.60;;
70832;SDS011;58452;59.418;17.962;2022-07-23T07:01:53;1.45;;;0.60;;
70832;SDS011;58452;59.418;17.962;2022-07-23T07:04:19;0.82;;;0.82;;
70832;SDS011;58452;59.418;17.962;2022-07-23T07:06:44;1.48;;;1.05;;
70832;SDS011;58452;59.418;17.962;2022-07-23T07:09:10;0.85;;;0.80;;
70832;SDS011;58452;59.418;17.962;2022-07-23T07:11:38;1.63;;;0.73;;
70832;SDS011;58452;59.418;17.962;2022-07-23T07:14:06;3.75;;;0.80;;
70832;SDS011;58452;59.418;17.962;2022-07-23T07:16:32;3.28;;;1.15;;
70832;SDS011;58452;59.418;17.962;2022-07-23T07:18:57;0.88;;;0.70;;
70832;SDS011;58452;59.418;17.962;2022-07-23T07:21:23;0.73;;;0.60;;
70832;SDS011;58452;59.418;17.962;2022-07-23T07:23:48;1.48;;;0.75;;
70832;SDS011;58452;59.418;17.962;2022-07-23T07:26:14;0.38;;;0.38;;
70832;SDS011;58452;59.418;17.962;2022-07-23T07:28:39;0.65;;;0.63;;
70832;SDS011;58452;59.418;17.962;2022-07-23T07:31:05;0.40;;;0.40;;
70832;SDS011;58452;59.418;17.962;2022-07-23T07:33:30;0.75;;;0.75;;
70832;SDS011;58452;59.418;17.962;2022-07-23T07:35:57;0.73;;;0.73;;
70832;SDS011;58452;59.418;17.962;2022-07-23T07:38:22;1.15;;;0.57;;
70832;SDS011;58452;59.418;17.962;2022-07-23T07:40:47;1.83;;;0.65;;
70832;SDS011;58452;59.418;17.962;2022-07-23T07:43:13;1.80;;;0.77;;
70832;SDS011;58452;59.418;17.962;2022-07-23T07:45:38;1.00;;;0.75;;
70832;SDS011;58452;59.418;17.962;2022-07-23T07:48:04;0.95;;;0.75;;
70832;SDS011;58452;59.418;17.962;2022-07-23T07:50:30;1.35;;;0.60;;
70832;SDS011;58452;59.418;17.962;2022-07-23T07:52:56;1.30;;;0.70;;
70832;SDS011;58452;59.418;17.962;2022-07-23T07:55:21;1.05;;;0.68;;
70832;SDS011;58452;59.418;17.962;2022-07-23T07:57:47;0.55;;;0.55;;
70832;SDS011;58452;59.418;17.962;2022-07-23T08:00:12;1.00;;;0.77;;
70832;SDS011;58452;59.418;17.962;2022-07-23T08:02:41;0.60;;;0.50;;
70832;SDS011;58452;59.418;17.962;2022-07-23T08:05:07;0.52;;;0.50;;
70832;SDS011;58452;59.418;17.962;2022-07-23T08:07:33;0.95;;;0.60;;
70832;SDS011;58452;59.418;17.962;2022-07-23T08:09:58;1.17;;;0.57;;
70832;SDS011;58452;59.418;17.962;2022-07-23T08:12:24;1.48;;;0.55;;
70832;SDS011;58452;59.418;17.962;2022-07-23T08:14:49;0.88;;;0.50;;
70832;SDS011;58452;59.418;17.962;2022-07-23T08:17:14;0.55;;;0.55;;
70832;SDS011;58452;59.418;17.962;2022-07-23T08:19:40;1.65;;;0.63;;
70832;SDS011;58452;59.418;17.962;2022-07-23T08:22:05;0.88;;;0.35;;
70832;SDS011;58452;59.418;17.962;2022-07-23T08:24:30;3.20;;;0.75;;
70832;SDS011;58452;59.418;17.962;2022-07-23T08:26:56;0.38;;;0.38;;
70832;SDS011;58452;59.418;17.962;2022-07-23T08:29:21;0.95;;;0.50;;
70832;SDS011;58452;59.418;17.962;2022-07-23T08:31:47;1.33;;;0.60;;
70832;SDS011;58452;59.418;17.962;2022-07-23T08:34:12;0.22;;;0.22;;
70832;SDS011;58452;59.418;17.962;2022-07-23T08:36:37;0.40;;;0.40;;
70832;SDS011;58452;59.418;17.962;2022-07-23T08:39:03;0.70;;;0.50;;
70832;SDS011;58452;59.418;17.962;2022-07-23T08:41:28;0.40;;;0.40;;
70832;SDS011;58452;59.418;17.962;2022-07-23T08:43:54;0.73;;;0.38;;
70832;SDS011;58452;59.418;17.962;2022-07-23T08:46:21;0.35;;;0.35;;
70832;SDS011;58452;59.418;17.962;2022-07-23T08:48:48;0.47;;;0.30;;
70832;SDS011;58452;59.418;17.962;2022-07-23T08:51:15;0.85;;;0.30;;
70832;SDS011;58452;59.418;17.962;2022-07-23T08:53:41;0.20;;;0.20;;
70832;SDS011;58452;59.418;17.962;2022-07-23T08:56:07;0.52;;;0.50;;
70832;SDS011;58452;59.418;17.962;2022-07-23T08:58:33;0.30;;;0.30;;
70832;SDS011;58452;59.418;17.962;2022-07-23T09:00:59;0.60;;;0.30;;
70832;SDS011;58452;59.418;17.962;2022-07-23T09:03:27;0.98;;;0.47;;
70832;SDS011;58452;59.418;17.962;2022-07-23T09:05:54;0.88;;;0.30;;
70832;SDS011;58452;59.418;17.962;2022-07-23T09:08:24;0.90;;;0.20;;
70832;SDS011;58452;59.418;17.962;2022-07-23T09:18:36;0.38;;;0.38;;
70832;SDS011;58452;59.418;17.962;2022-07-23T09:21:14;0.30;;;0.30;;
70832;SDS011;58452;59.418;17.962;2022-07-23T09:28:50;0.30;;;0.30;;
70832;SDS011;58452;59.418;17.962;2022-07-23T09:31:19;2.83;;;1.45;;
70832;SDS011;58452;59.418;17.962;2022-07-23T09:33:45;1.67;;;0.60;;
70832;SDS011;58452;59.418;17.962;2022-07-23T09:36:11;1.15;;;0.45;;
70832;SDS011;58452;59.418;17.962;2022-07-23T09:38:47;1.05;;;0.32;;
70832;SDS011;58452;59.418;17.962;2022-07-23T09:41:14;1.38;;;0.55;;
70832;SDS011;58452;59.418;17.962;2022-07-23T09:43:39;3.70;;;0.43;;
70832;SDS011;58452;59.418;17.962;2022-07-23T09:46:22;0.65;;;0.30;;
70832;SDS011;58452;59.418;17.962;2022-07-23T09:48:49;0.30;;;0.30;;
70832;SDS011;58452;59.418;17.962;2022-07-23T09:51:16;1.08;;;0.50;;
70832;SDS011;58452;59.418;17.962;2022-07-23T09:53:55;1.15;;;0.30;;
70832;SDS011;58452;59.418;17.962;2022-07-23T09:56:20;1.73;;;0.60;;
70832;SDS011;58452;59.418;17.962;2022-07-23T09:58:48;0.57;;;0.50;;
70832;SDS011;58452;59.418;17.962;2022-07-23T10:01:15;1.77;;;0.73;;
70832;SDS011;58452;59.418;17.962;2022-07-23T10:03:41;1.50;;;0.90;;
70832;SDS011;58452;59.418;17.962;2022-07-23T10:06:08;2.35;;;0.77;;
70832;SDS011;58452;59.418;17.962;2022-07-23T10:08:35;0.93;;;0.45;;
70832;SDS011;58452;59.418;17.962;2022-07-23T10:11:01;1.67;;;0.50;;
70832;SDS011;58452;59.418;17.962;2022-07-23T10:13:28;0.90;;;0.60;;
70832;SDS011;58452;59.418;17.962;2022-07-23T10:16:13;0.82;;;0.57;;
70832;SDS011;58452;59.418;17.962;2022-07-23T10:18:41;1.27;;;0.40;;
70832;SDS011;58452;59.418;17.962;2022-07-23T10:21:07;2.95;;;0.75;;
70832;SDS011;58452;59.418;17.962;2022-07-23T10:23:39;1.77;;;0.60;;
70832;SDS011;58452;59.418;17.962;2022-07-23T10:29:01;1.42;;;0.70;;
70832;SDS011;58452;59.418;17.962;2022-07-23T10:31:52;0.77;;;0.68;;
70832;SDS011;58452;59.418;17.962;2022-07-23T10:34:44;1.98;;;1.00;;
70832;SDS011;58452;59.418;17.962;2022-07-23T10:37:21;3.22;;;0.45;;
70832;SDS011;58452;59.418;17.962;2022-07-23T10:42:44;0.65;;;0.50;;
70832;SDS011;58452;59.418;17.962;2022-07-23T10:45:23;0.52;;;0.30;;
70832;SDS011;58452;59.418;17.962;2022-07-23T10:47:50;0.57;;;0.43;;
70832;SDS011;58452;59.418;17.962;2022-07-23T10:50:17;2.05;;;0.70;;
70832;SDS011;58452;59.418;17.962;2022-07-23T10:53:09;8.50;;;1.90;;
70832;SDS011;58452;59.418;17.962;2022-07-23T10:57:57;2.45;;;1.13;;
70832;SDS011;58452;59.418;17.962;2022-07-23T11:00:23;2.95;;;0.77;;
70832;SDS011;58452;59.418;17.962;2022-07-23T11:02:50;2.13;;;0.40;;
70832;SDS011;58452;59.418;17.962;2022-07-23T11:05:18;1.65;;;0.70;;
70832;SDS011;58452;59.418;17.962;2022-07-23T11:10:35;2.65;;;0.63;;
70832;SDS011;58452;59.418;17.962;2022-07-23T11:16:21;1.20;;;0.70;;
70832;SDS011;58452;59.418;17.962;2022-07-23T11:32:03;1.60;;;1.10;;
70832;SDS011;58452;59.418;17.962;2022-07-23T11:37:04;3.03;;;0.93;;
70832;SDS011;58452;59.418;17.962;2022-07-23T11:39:31;1.13;;;0.80;;
70832;SDS011;58452;59.418;17.962;2022-07-23T11:41:58;1.00;;;0.80;;
70832;SDS011;58452;59.418;17.962;2022-07-23T11:44:32;1.45;;;0.90;;
70832;SDS011;58452;59.418;17.962;2022-07-23T11:46:59;0.80;;;0.80;;
70832;SDS011;58452;59.418;17.962;2022-07-23T11:49:26;0.90;;;0.70;;
70832;SDS011;58452;59.418;17.962;2022-07-23T11:52:02;0.80;;;0.70;;
70832;SDS011;58452;59.418;17.962;2022-07-23T11:55:21;3.30;;;1.33;;
70832;SDS011;58452;59.418;17.962;2022-07-23T11:57:29;6.30;;;1.88;;
70832;SDS011;58452;59.418;17.962;2022-07-23T11:59:57;2.78;;;0.70;;
70832;SDS011;58452;59.418;17.962;2022-07-23T12:02:28;4.93;;;1.95;;
70832;SDS011;58452;59.418;17.962;2022-07-23T12:04:54;1.80;;;1.27;;
70832;SDS011;58452;59.418;17.962;2022-07-23T12:07:27;2.20;;;0.75;;
70832;SDS011;58452;59.418;17.962;2022-07-23T12:15:07;1.50;;;0.68;;
70832;SDS011;58452;59.418;17.962;2022-07-23T12:17:35;1.50;;;0.60;;
70832;SDS011;58452;59.418;17.962;2022-07-23T12:20:03;2.17;;;0.70;;
70832;SDS011;58452;59.418;17.962;2022-07-23T12:22:39;1.17;;;0.68;;
70832;SDS011;58452;59.418;17.962;2022-07-23T12:27:35;1.98;;;0.85;;
70832;SDS011;58452;59.418;17.962;2022-07-23T12:32:57;1.52;;;0.73;;
70832;SDS011;58452;59.418;17.962;2022-07-23T12:35:29;0.70;;;0.70;;
70832;SDS011;58452;59.418;17.962;2022-07-23T12:37:59;9.43;;;1.00;;
70832;SDS011;58452;59.418;17.962;2022-07-23T12:43:06;1.35;;;0.68;;
70832;SDS011;58452;59.418;17.962;2022-07-23T12:45:44;1.65;;;0.70;;
70832;SDS011;58452;59.418;17.962;2022-07-23T12:48:36;5.00;;;0.88;;
70832;SDS011;58452;59.418;17.962;2022-07-23T12:51:04;0.80;;;0.80;;
70832;SDS011;58452;59.418;17.962;2022-07-23T12:53:37;1.88;;;0.70;;
70832;SDS011;58452;59.418;17.962;2022-07-23T12:56:12;2.65;;;1.00;;
70832;SDS011;58452;59.418;17.962;2022-07-23T12:58:47;0.75;;;0.68;;
70832;SDS011;58452;59.418;17.962;2022-07-23T13:06:29;4.78;;;1.02;;
70832;SDS011;58452;59.418;17.962;2022-07-23T13:08:56;2.58;;;0.63;;
70832;SDS011;58452;59.418;17.962;2022-07-23T13:11:22;1.88;;;0.80;;
70832;SDS011;58452;59.418;17.962;2022-07-23T13:13:48;2.70;;;0.68;;
70832;SDS011;58452;59.418;17.962;2022-07-23T13:16:16;2.80;;;0.70;;
70832;SDS011;58452;59.418;17.962;2022-07-23T13:18:42;0.80;;;0.50;;
70832;SDS011;58452;59.418;17.962;2022-07-23T13:21:08;4.50;;;1.50;;
70832;SDS011;58452;59.418;17.962;2022-07-23T13:23:33;5.30;;;1.20;;
70832;SDS011;58452;59.418;17.962;2022-07-23T13:25:59;1.23;;;0.80;;
70832;SDS011;58452;59.418;17.962;2022-07-23T13:28:24;1.77;;;0.88;;
70832;SDS011;58452;59.418;17.962;2022-07-23T13:30:50;2.30;;;0.57;;
70832;SDS011;58452;59.418;17.962;2022-07-23T13:33:18;1.48;;;0.80;;
70832;SDS011;58452;59.418;17.962;2022-07-23T13:35:45;2.05;;;0.80;;
70832;SDS011;58452;59.418;17.962;2022-07-23T13:38:11;1.55;;;0.82;;
70832;SDS011;58452;59.418;17.962;2022-07-23T13:40:38;1.67;;;0.93;;
70832;SDS011;58452;59.418;17.962;2022-07-23T13:43:07;1.45;;;0.65;;
70832;SDS011;58452;59.418;17.962;2022-07-23T13:45:34;3.22;;;0.85;;
70832;SDS011;58452;59.418;17.962;2022-07-23T13:47:59;2.88;;;0.80;;
70832;SDS011;58452;59.418;17.962;2022-07-23T13:50:25;0.88;;;0.80;;
70832;SDS011;58452;59.418;17.962;2022-07-23T13:52:50;3.00;;;0.80;;
70832;SDS011;58452;59.418;17.962;2022-07-23T13:55:16;2.22;;;1.00;;
70832;SDS011;58452;59.418;17.962;2022-07-23T13:57:41;1.13;;;0.90;;
70832;SDS011;58452;59.418;17.962;2022-07-23T14:00:07;1.38;;;0.70;;
70832;SDS011;58452;59.418;17.962;2022-07-23T14:02:36;1.77;;;0.90;;
70832;SDS011;58452;59.418;17.962;2022-07-23T14:05:03;1.23;;;0.65;;
70832;SDS011;58452;59.418;17.962;2022-07-23T14:07:34;1.23;;;0.93;;
70832;SDS011;58452;59.418;17.962;2022-07-23T14:10:00;1.92;;;0.90;;
70832;SDS011;58452;59.418;17.962;2022-07-23T14:12:25;1.83;;;0.75;;
70832;SDS011;58452;59.418;17.962;2022-07-23T14:14:51;3.78;;;1.45;;
70832;SDS011;58452;59.418;17.962;2022-07-23T14:17:17;6.45;;;0.98;;
70832;SDS011;58452;59.418;17.962;2022-07-23T14:19:43;0.82;;;0.63;;
70832;SDS011;58452;59.418;17.962;2022-07-23T14:22:08;1.58;;;0.65;;
70832;SDS011;58452;59.418;17.962;2022-07-23T14:24:34;2.15;;;1.00;;
70832;SDS011;58452;59.418;17.962;2022-07-23T14:27:00;1.83;;;0.80;;
70832;SDS011;58452;59.418;17.962;2022-07-23T14:29:27;1.40;;;0.55;;
70832;SDS011;58452;59.418;17.962;2022-07-23T14:31:52;1.83;;;0.73;;
70832;SDS011;58452;59.418;17.962;2022-07-23T14:34:18;0.90;;;0.75;;
70832;SDS011;58452;59.418;17.962;2022-07-23T14:36:43;2.05;;;0.82;;
70832;SDS011;58452;59.418;17.962;2022-07-23T14:39:09;1.85;;;0.70;;
70832;SDS011;58452;59.418;17.962;2022-07-23T14:41:35;0.95;;;0.73;;
70832;SDS011;58452;59.418;17.962;2022-07-23T14:44:01;1.00;;;0.63;;
70832;SDS011;58452;59.418;17.962;2022-07-23T14:46:27;2.95;;;0.60;;
70832;SDS011;58452;59.418;17.962;2022-07-23T14:48:53;0.88;;;0.60;;
70832;SDS011;58452;59.418;17.962;2022-07-23T14:51:18;2.00;;;0.90;;
70832;SDS011;58452;59.418;17.962;2022-07-23T14:53:44;2.08;;;0.60;;
70832;SDS011;58452;59.418;17.962;2022-07-23T14:56:09;1.05;;;0.55;;
70832;SDS011;58452;59.418;17.962;2022-07-23T14:58:35;1.05;;;0.90;;
70832;SDS011;58452;59.418;17.962;2022-07-23T15:01:00;2.10;;;0.77;;
70832;SDS011;58452;59.418;17.962;2022-07-23T15:03:26;3.00;;;0.70;;
70832;SDS011;58452;59.418;17.962;2022-07-23T15:05:51;2.78;;;0.63;;
70832;SDS011;58452;59.418;17.962;2022-07-23T15:08:17;0.75;;;0.70;;
70832;SDS011;58452;59.418;17.962;2022-07-23T15:10:42;3.20;;;1.13;;
70832;SDS011;58452;59.418;17.962;2022-07-23T15:13:08;1.98;;;0.75;;
70832;SDS011;58452;59.418;17.962;2022-07-23T15:15:33;6.38;;;1.00;;
70832;SDS011;58452;59.418;17.962;2022-07-23T15:17:59;1.42;;;0.80;;
70832;SDS011;58452;59.418;17.962;2022-07-23T15:20:24;4.50;;;1.10;;
70832;SDS011;58452;59.418;17.962;2022-07-23T15:22:50;2.50;;;1.58;;
70832;SDS011;58452;59.418;17.962;2022-07-23T15:25:15;1.65;;;0.85;;
70832;SDS011;58452;59.418;17.962;2022-07-23T15:27:41;1.27;;;0.85;;
70832;SDS011;58452;59.418;17.962;2022-07-23T15:30:06;0.80;;;0.80;;